Time;durP1;ratioP1;P1;durP2;ratioP2;P2;SDS_P1;SDS_P2;PMS_P1;PMS_P2;Temp;Humidity;BMP_temperature;BMP_pressure;BME280_temperature;BME280_humidity;BME280_pressure;Samples;Min_cycle;Max_cycle;Signal;HPM_P1;HPM_P2
2022/06/08 00:02:16;;;;;;;3.53;3.20;;;;;;;15.31;100.00;63580.25;5082940;28;20216;-77
2022/06/08 00:04:43;;;;;;;3.45;3.25;;;;;;;15.38;100.00;63584.44;5082322;28;20455;-78
2022/06/08 00:07:10;;;;;;;3.15;2.95;;;;;;;15.39;100.00;63593.72;5076940;28;20263;-76
2022/06/08 00:09:38;;;;;;;3.38;3.17;;;;;;;15.41;100.00;63592.72;5079996;28;20197;-76
2022/06/08 00:12:06;;;;;;;3.50;3.30;;;;;;;15.36;100.00;63588.00;5085561;28;20227;-78
2022/06/08 00:14:32;;;;;;;3.55;3.33;;;;;;;15.45;100.00;63592.25;5085609;28;20233;-77
2022/06/08 00:17:00;;;;;;;3.95;3.55;;;;;;;15.43;100.00;63594.81;5075676;28;20271;-77
2022/06/08 00:19:27;;;;;;;3.13;2.92;;;;;;;15.43;100.00;63594.81;5065538;28;20197;-78
2022/06/08 00:21:54;;;;;;;3.33;3.13;;;;;;;15.39;100.00;63588.06;5065741;28;20217;-76
2022/06/08 00:24:21;;;;;;;5.28;3.15;;;;;;;15.47;100.00;63596.91;5065053;28;20198;-77
2022/06/08 00:26:49;;;;;;;4.88;3.42;;;;;;;15.44;100.00;63591.22;5076878;28;20255;-76
2022/06/08 00:29:16;;;;;;;4.25;3.28;;;;;;;15.43;100.00;63597.88;5085426;28;20247;-77
2022/06/08 00:31:43;;;;;;;3.58;3.38;;;;;;;15.45;100.00;63599.44;5085538;28;20263;-76
2022/06/08 00:34:09;;;;;;;4.93;3.00;;;;;;;15.46;100.00;63598.44;5083287;28;20381;-76
2022/06/08 00:36:36;;;;;;;3.70;3.40;;;;;;;15.54;100.00;63606.22;5080570;28;20517;-77
2022/06/08 00:39:04;;;;;;;3.42;3.13;;;;;;;15.53;100.00;63605.19;5085695;28;20196;-77
2022/06/08 00:41:41;;;;;;;3.83;3.38;;;;;;;15.30;100.00;63583.81;5085259;28;20410;-76
2022/06/08 00:44:14;;;;;;;3.42;3.22;;;;;;;15.14;100.00;63562.06;5081184;28;20200;-77
2022/06/08 00:46:42;;;;;;;4.25;3.97;;;;;;;15.09;100.00;63559.97;5065297;28;20275;-76
2022/06/08 00:49:15;;;;;;;8.23;3.33;;;;;;;15.03;100.00;63551.69;5066608;28;20209;-76
2022/06/08 00:51:42;;;;;;;3.95;3.65;;;;;;;14.99;100.00;63547.00;5084773;28;20220;-76
2022/06/08 00:54:14;;;;;;;4.47;4.05;;;;;;;14.98;100.00;63546.47;5068086;28;20193;-77
2022/06/08 00:56:47;;;;;;;3.85;3.65;;;;;;;14.89;100.00;63536.63;5064539;28;20308;-77
2022/06/08 00:59:15;;;;;;;4.45;4.07;;;;;;;14.95;100.00;63545.41;5065177;28;20424;-78
2022/06/08 01:01:42;;;;;;;4.60;4.30;;;;;;;14.95;100.00;63547.97;5065549;28;20233;-77
2022/06/08 01:04:11;;;;;;;4.60;4.30;;;;;;;14.90;100.00;63543.31;5065334;28;20206;-77
2022/06/08 01:06:40;;;;;;;5.32;3.95;;;;;;;14.88;100.00;63535.56;5065136;28;20274;-77
2022/06/08 01:09:16;;;;;;;4.15;3.83;;;;;;;14.91;100.00;63539.22;5064956;28;20197;-77
2022/06/08 01:11:46;;;;;;;4.70;3.85;;;;;;;14.98;100.00;63548.53;5073607;28;20269;-78
2022/06/08 01:14:16;;;;;;;4.05;3.85;;;;;;;14.94;100.00;63544.88;5067070;28;20209;-77
2022/06/08 01:16:48;;;;;;;4.22;3.92;;;;;;;14.91;100.00;63541.78;5065491;28;20233;-76
2022/06/08 01:19:15;;;;;;;4.28;3.88;;;;;;;14.86;100.00;63536.56;5066458;28;20201;-77
2022/06/08 01:21:52;;;;;;;4.47;4.07;;;;;;;14.84;100.00;63534.50;5078448;28;20227;-77
2022/06/08 01:24:19;;;;;;;4.03;3.70;;;;;;;14.84;100.00;63534.50;5087865;28;20477;-77
2022/06/08 01:26:58;;;;;;;3.55;3.35;;;;;;;14.80;100.00;63532.41;5088019;28;20225;-77
2022/06/08 01:29:31;;;;;;;5.72;4.00;;;;;;;14.74;100.00;63523.59;5086727;28;20292;-77
2022/06/08 01:32:03;;;;;;;3.78;3.45;;;;;;;14.73;100.00;63525.13;5070738;28;20271;-78
2022/06/08 01:34:39;;;;;;;5.28;3.90;;;;;;;14.58;100.00;63506.97;5064341;28;20203;-77
2022/06/08 01:37:20;;;;;;;4.35;4.03;;;;;;;14.52;100.00;63503.81;5078187;28;20512;-77
2022/06/08 01:40:04;;;;;;;3.78;3.58;;;;;;;14.55;100.00;63503.84;5063686;28;20505;-77
2022/06/08 01:42:53;;;;;;;6.97;3.75;;;;;;;14.55;100.00;63503.84;5064503;28;20217;-77
2022/06/08 01:45:30;;;;;;;3.22;3.13;;;;;;;14.48;100.00;63491.97;5064281;28;20201;-76
2022/06/08 01:48:32;;;;;;;3.88;3.35;;;;;;;14.52;100.00;63498.19;5069077;28;20195;-77
2022/06/08 01:51:11;;;;;;;3.67;3.47;;;;;;;14.53;100.00;63499.22;5061980;28;20232;-77
2022/06/08 01:53:52;;;;;;;4.00;3.60;;;;;;;14.48;100.00;63497.09;5070585;28;20196;-77
2022/06/08 01:56:26;;;;;;;4.05;3.60;;;;;;;14.45;100.00;63491.44;5063673;28;20239;-77
2022/06/08 01:59:04;;;;;;;3.85;3.65;;;;;;;14.46;100.00;63492.47;5064162;28;20243;-76
2022/06/08 02:01:42;;;;;;;3.63;3.42;;;;;;;14.36;100.00;63481.56;5063492;28;20237;-76
2022/06/08 02:04:18;;;;;;;3.55;3.35;;;;;;;14.38;100.00;63489.28;5076970;28;20227;-77
2022/06/08 02:06:52;;;;;;;3.85;3.65;;;;;;;14.39;100.00;63482.13;5084491;28;20498;-76
2022/06/08 02:09:29;;;;;;;3.47;3.28;;;;;;;14.37;100.00;63483.13;5083794;28;20198;-77
2022/06/08 02:12:01;;;;;;;3.35;3.15;;;;;;;14.35;100.00;63481.03;5076722;28;20212;-78
2022/06/08 02:14:34;;;;;;;3.20;3.00;;;;;;;14.39;100.00;63487.75;5075478;28;20201;-76
2022/06/08 02:17:07;;;;;;;3.30;3.10;;;;;;;14.49;100.00;63500.72;5063356;28;20304;-77
2022/06/08 02:19:39;;;;;;;3.42;3.25;;;;;;;14.48;100.00;63494.03;5064246;28;20193;-77
2022/06/08 02:22:10;;;;;;;3.33;3.10;;;;;;;14.26;100.00;63471.16;5066290;28;20217;-77
2022/06/08 02:24:42;;;;;;;3.72;3.20;;;;;;;14.25;100.00;63478.34;5082352;28;20193;-77
2022/06/08 02:27:15;;;;;;;3.45;3.10;;;;;;;14.26;100.00;63469.13;5063667;28;20292;-78
2022/06/08 02:29:48;;;;;;;3.30;3.10;;;;;;;14.36;100.00;63481.56;5063951;28;20192;-77
2022/06/08 02:35:11;;;;;;;3.05;2.95;;;;;;;14.30;100.00;63480.97;5081310;28;20188;-76
2022/06/08 02:37:40;;;;;;;3.47;3.28;;;;;;;14.28;100.00;63478.91;5103929;28;20433;-77
2022/06/08 02:40:13;;;;;;;4.07;3.53;;;;;;;14.30;100.00;63475.34;5094513;28;20197;-76
2022/06/08 02:42:43;;;;;;;3.97;3.67;;;;;;;14.28;100.00;63480.94;5077381;28;20248;-76
2022/06/08 02:45:14;;;;;;;34.58;21.95;;;;;;;14.31;100.00;63476.38;5084836;28;20193;-76
2022/06/08 02:47:44;;;;;;;6.22;4.95;;;;;;;14.34;100.00;63482.56;5078216;28;20264;-76
2022/06/08 02:50:14;;;;;;;5.10;4.72;;;;;;;14.26;100.00;63474.25;5076277;28;20258;-77
2022/06/08 02:52:43;;;;;;;8.75;7.85;;;;;;;14.36;100.00;63484.13;5084181;28;20521;-76
2022/06/08 02:55:19;;;;;;;4.30;3.30;;;;;;;14.28;100.00;63476.34;5084712;28;20282;-77
2022/06/08 02:57:52;;;;;;;3.50;3.20;;;;;;;14.31;100.00;63479.44;5081639;28;20238;-76
2022/06/08 03:00:26;;;;;;;3.30;3.10;;;;;;;14.30;100.00;63477.91;5079884;28;20260;-75
2022/06/08 03:02:58;;;;;;;3.53;3.33;;;;;;;14.22;100.00;63472.13;5085252;28;20679;-77
2022/06/08 03:05:28;;;;;;;3.30;3.08;;;;;;;14.24;100.00;63472.16;5084541;28;20196;-76
2022/06/08 03:08:00;;;;;;;3.33;3.13;;;;;;;14.25;100.00;63470.66;5076694;28;20240;-76
2022/06/08 03:10:33;;;;;;;3.25;3.10;;;;;;;14.29;100.00;63477.38;5064035;28;20197;-76
2022/06/08 03:13:05;;;;;;;11.60;10.43;;;;;;;14.38;100.00;63486.72;5064612;28;20399;-76
2022/06/08 03:15:33;;;;;;;3.92;3.72;;;;;;;14.45;100.00;63491.44;5063864;28;20252;-76
2022/06/08 03:18:00;;;;;;;4.75;4.30;;;;;;;14.51;100.00;63497.66;5076452;28;20236;-76
2022/06/08 03:20:28;;;;;;;4.47;4.03;;;;;;;14.62;100.00;63509.09;5084000;28;20204;-77
2022/06/08 03:22:55;;;;;;;4.30;4.00;;;;;;;14.66;100.00;63515.28;5083335;28;20216;-75
2022/06/08 03:25:23;;;;;;;4.40;4.13;;;;;;;14.69;100.00;63513.78;5081625;28;20516;-76
2022/06/08 03:27:51;;;;;;;4.93;4.57;;;;;;;14.77;100.00;63529.28;5063523;28;20439;-76
2022/06/08 03:30:19;;;;;;;5.28;4.88;;;;;;;14.81;100.00;63523.69;5064439;28;20494;-77
2022/06/08 03:32:46;;;;;;;7.13;4.97;;;;;;;14.88;100.00;63535.56;5063975;28;20243;-77
2022/06/08 03:35:13;;;;;;;5.60;5.10;;;;;;;14.96;100.00;63544.41;5062242;28;20201;-77
2022/06/08 03:37:41;;;;;;;5.25;4.75;;;;;;;15.02;100.00;63552.69;5061879;28;20283;-77
2022/06/08 03:40:09;;;;;;;4.57;4.28;;;;;;;15.13;100.00;63561.56;5062846;28;20199;-76
2022/06/08 03:42:37;;;;;;;5.30;4.88;;;;;;;15.20;100.00;63573.97;5063147;28;20221;-77
2022/06/08 03:45:07;;;;;;;5.20;4.82;;;;;;;15.25;100.00;63574.03;5061800;28;20228;-77
2022/06/08 03:47:40;;;;;;;4.65;4.25;;;;;;;15.26;100.00;63579.66;5066532;28;20260;-76
2022/06/08 03:50:14;;;;;;;4.88;4.50;;;;;;;15.41;100.00;63597.84;5076814;28;20485;-76
2022/06/08 03:52:47;;;;;;;4.65;4.30;;;;;;;15.54;100.00;63603.66;5080994;28;20244;-76
2022/06/08 03:55:19;;;;;;;5.47;5.00;;;;;;;15.64;100.00;63617.16;5084756;28;20235;-76
2022/06/08 03:57:46;;;;;;;5.32;4.82;;;;;;;15.58;100.00;63608.34;5069344;28;20232;-76
2022/06/08 04:00:16;;;;;;;6.13;5.63;;;;;;;15.69;100.00;63616.69;5086903;28;20496;-76
2022/06/08 04:02:43;;;;;;;5.22;4.65;;;;;;;16.01;100.00;63658.19;5081290;28;20221;-76
2022/06/08 04:05:10;;;;;;;5.38;5.03;;;;;;;16.32;100.00;63684.78;5066719;28;20207;-76
2022/06/08 04:07:37;;;;;;;4.80;4.50;;;;;;;16.56;100.00;63711.81;5067037;28;20224;-77
2022/06/08 04:10:05;;;;;;;7.38;4.65;;;;;;;16.86;100.00;63743.03;5066290;28;20201;-77
2022/06/08 04:12:32;;;;;;;4.80;4.50;;;;;;;17.15;100.00;63771.16;5069231;28;20220;-78
2022/06/08 04:14:59;;;;;;;5.20;4.55;;;;;;;17.38;100.00;63797.16;5066332;28;20197;-77
2022/06/08 04:17:28;;;;;;;5.25;4.45;;;;;;;17.45;100.00;63803.94;5078895;28;20383;-76
2022/06/08 04:19:56;;;;;;;4.18;3.88;;;;;;;17.17;100.00;63772.72;5083759;28;20489;-77
2022/06/08 04:22:30;;;;;;;4.65;4.18;;;;;;;17.15;100.00;63768.06;5066348;28;20224;-77
2022/06/08 04:24:57;;;;;;;5.13;4.68;;;;;;;17.15;100.00;63775.78;5066188;28;20195;-78
2022/06/08 04:27:24;;;;;;;7.07;4.63;;;;;;;17.06;100.00;63758.69;5065956;28;20224;-77
2022/06/08 04:29:52;;;;;;;6.10;5.60;;;;;;;16.84;100.00;63738.88;5065275;28;20269;-77
2022/06/08 04:32:19;;;;;;;4.80;4.45;;;;;;;16.71;100.00;63727.94;5068570;28;20232;-78
2022/06/08 04:34:47;;;;;;;5.78;5.30;;;;;;;16.64;100.00;63714.97;5066068;28;20528;-78
2022/06/08 04:37:14;;;;;;;6.00;5.40;;;;;;;16.68;100.00;63724.81;5082276;28;20228;-78
2022/06/08 04:39:41;;;;;;;7.97;5.85;;;;;;;16.81;100.00;63740.38;5076979;28;20550;-79
2022/06/08 04:42:08;;;;;;;5.47;5.00;;;;;;;16.97;100.00;63754.47;5075266;28;20247;-77
2022/06/08 04:44:36;;;;;;;5.28;4.78;;;;;;;17.02;100.00;63760.19;5085579;28;20206;-77
2022/06/08 04:47:03;;;;;;;4.55;4.20;;;;;;;17.05;100.00;63758.19;5074100;28;20232;-77
2022/06/08 04:49:30;;;;;;;7.47;4.60;;;;;;;17.03;100.00;63756.09;5078404;28;20447;-78
2022/06/08 04:51:59;;;;;;;4.90;4.50;;;;;;;16.99;100.00;63757.09;5065419;28;20240;-77
2022/06/08 04:54:26;;;;;;;5.18;4.43;;;;;;;17.01;100.00;63756.06;5064554;28;20243;-77
2022/06/08 04:56:53;;;;;;;4.80;4.40;;;;;;;17.10;100.00;63762.88;5065654;28;20229;-76
2022/06/08 04:59:19;;;;;;;4.93;4.60;;;;;;;17.23;100.00;63781.53;5065113;28;20224;-77
2022/06/08 05:01:46;;;;;;;6.88;5.00;;;;;;;17.24;100.00;63782.56;5064450;28;20271;-77
2022/06/08 05:04:13;;;;;;;11.02;4.85;;;;;;;17.37;100.00;63796.13;5065273;28;20189;-77
2022/06/08 05:06:40;;;;;;;10.57;5.43;;;;;;;17.31;100.00;63787.28;5068555;28;20513;-77
2022/06/08 05:09:08;;;;;;;5.90;5.40;;;;;;;17.46;100.00;63808.09;5065228;28;20505;-76
2022/06/08 05:11:35;;;;;;;8.45;3.92;;;;;;;17.42;100.00;63798.22;5079919;28;20265;-76
2022/06/08 05:14:02;;;;;;;4.80;3.90;;;;;;;17.40;100.00;63798.72;5082495;28;20200;-77
2022/06/08 05:16:29;;;;;;;3.92;3.50;;;;;;;17.42;100.00;63793.06;5078117;28;20239;-76
2022/06/08 05:18:56;;;;;;;4.40;3.47;;;;;;;17.43;99.70;63799.28;5084005;28;20457;-76
2022/06/08 05:21:22;;;;;;;4.60;3.40;;;;;;;17.54;100.00;63810.72;5084191;28;20220;-78
2022/06/08 05:23:50;;;;;;;4.88;3.83;;;;;;;17.40;100.00;63796.13;5078344;28;20223;-76
2022/06/08 05:26:18;;;;;;;5.78;3.92;;;;;;;17.38;100.00;63791.50;5084419;28;20230;-77
2022/06/08 05:28:45;;;;;;;5.35;3.13;;;;;;;17.50;100.00;63807.09;5084229;28;20195;-77
2022/06/08 05:31:13;;;;;;;3.95;3.75;;;;;;;17.73;100.00;63833.09;5073833;28;20442;-77
2022/06/08 05:33:40;;;;;;;3.65;3.45;;;;;;;17.94;100.00;63854.97;5064392;28;20227;-77
2022/06/08 05:36:07;;;;;;;3.78;3.53;;;;;;;18.12;99.13;63871.16;5064827;28;20228;-77
2022/06/08 05:38:34;;;;;;;5.53;3.80;;;;;;;18.24;97.15;63884.16;5065930;28;20224;-77
2022/06/08 05:41:01;;;;;;;5.38;3.10;;;;;;;18.34;95.99;63894.06;5065204;28;20227;-78
2022/06/08 05:43:29;;;;;;;4.72;4.30;;;;;;;18.49;93.62;63909.19;5068477;28;20208;-76
2022/06/08 05:45:56;;;;;;;3.78;3.58;;;;;;;18.57;90.89;63920.63;5072759;28;20228;-77
2022/06/08 05:48:23;;;;;;;3.47;3.25;;;;;;;18.57;90.82;63920.63;5082224;28;20217;-77
2022/06/08 05:50:50;;;;;;;4.15;3.60;;;;;;;18.61;91.25;63922.22;5062939;28;20343;-77
2022/06/08 05:53:18;;;;;;;4.60;3.92;;;;;;;18.76;89.05;63934.75;5069139;28;20224;-76
2022/06/08 05:55:45;;;;;;;4.75;3.80;;;;;;;18.89;88.34;63950.88;5076504;28;20417;-76
2022/06/08 05:58:12;;;;;;;6.93;3.70;;;;;;;19.04;88.14;63966.50;5075739;28;20244;-77
2022/06/08 06:00:43;;;;;;;3.60;3.38;;;;;;;19.15;87.55;63980.56;5078831;28;20203;-77
2022/06/08 06:03:10;;;;;;;4.30;3.33;;;;;;;18.95;88.79;63962.81;5074415;28;20193;-77
2022/06/08 06:05:40;;;;;;;3.70;3.50;;;;;;;18.95;87.10;63957.13;5076560;28;20192;-76
2022/06/08 06:08:08;;;;;;;3.47;3.30;;;;;;;19.11;85.81;63971.75;5076331;28;20196;-77
2022/06/08 06:10:38;;;;;;;4.10;3.70;;;;;;;19.24;85.20;63987.38;5079167;28;20267;-77
2022/06/08 06:13:06;;;;;;;3.88;3.50;;;;;;;19.29;82.49;63993.09;5079847;28;20185;-77
2022/06/08 06:15:33;;;;;;;4.07;3.72;;;;;;;19.45;81.47;64014.97;5079147;28;20207;-76
2022/06/08 06:18:02;;;;;;;3.38;2.97;;;;;;;19.51;77.89;64016.09;5081605;28;20228;-77
2022/06/08 06:20:28;;;;;;;3.58;3.35;;;;;;;19.70;78.78;64037.44;5085046;28;20204;-76
2022/06/08 06:22:56;;;;;;;3.90;3.55;;;;;;;19.92;79.87;64060.91;5086818;28;20246;-76
2022/06/08 06:25:22;;;;;;;3.13;2.75;;;;;;;20.19;74.52;64086.50;5084229;28;20185;-77
2022/06/08 06:27:50;;;;;;;3.10;3.00;;;;;;;20.17;70.77;64083.91;5072806;28;20216;-76
2022/06/08 06:30:18;;;;;;;3.72;3.40;;;;;;;20.36;73.48;64112.00;5070618;28;20265;-77
2022/06/08 06:32:46;;;;;;;4.72;3.47;;;;;;;20.26;71.69;64093.31;5065810;28;20250;-77
2022/06/08 06:35:21;;;;;;;3.45;3.22;;;;;;;20.34;73.53;64104.22;5071266;28;20211;-77
2022/06/08 06:37:48;;;;;;;5.57;3.50;;;;;;;20.39;73.18;64112.03;5070426;28;20259;-77
2022/06/08 06:40:15;;;;;;;3.70;3.30;;;;;;;20.53;71.74;64124.06;5066535;28;20200;-77
2022/06/08 06:42:42;;;;;;;7.57;4.00;;;;;;;20.93;68.14;64168.41;5064593;28;20276;-77
2022/06/08 06:45:10;;;;;;;3.67;3.35;;;;;;;21.19;65.97;64190.38;5076411;28;20503;-77
2022/06/08 06:47:37;;;;;;;3.00;2.80;;;;;;;21.14;61.78;64185.16;5073250;28;20235;-78
2022/06/08 06:50:06;;;;;;;3.20;3.10;;;;;;;20.58;63.39;64129.28;5073877;28;20224;-76
2022/06/08 06:52:34;;;;;;;6.82;3.80;;;;;;;20.59;68.53;64128.25;5067819;28;20230;-77
2022/06/08 06:55:01;;;;;;;4.20;3.40;;;;;;;20.97;65.34;64169.47;5067251;28;20201;-76
2022/06/08 06:57:28;;;;;;;3.72;3.42;;;;;;;20.97;61.73;64164.31;5062635;28;20240;-77
2022/06/08 06:59:55;;;;;;;3.55;3.15;;;;;;;21.04;63.24;64176.78;5070740;28;20381;-75
2022/06/08 07:02:22;;;;;;;4.20;3.00;;;;;;;21.17;62.49;64190.38;5082672;28;20558;-77
2022/06/08 07:04:50;;;;;;;3.20;3.00;;;;;;;21.24;58.82;64197.69;5068696;28;20231;-77
2022/06/08 07:07:17;;;;;;;2.70;2.60;;;;;;;21.01;55.61;64174.19;5062821;28;20278;-77
2022/06/08 07:09:46;;;;;;;3.17;2.50;;;;;;;20.91;59.43;64166.31;5062793;28;20201;-76
2022/06/08 07:12:13;;;;;;;5.38;3.00;;;;;;;20.85;60.64;64156.94;5061812;28;20212;-77
2022/06/08 07:14:42;;;;;;;4.00;2.65;;;;;;;20.95;62.62;64162.72;5062337;28;20196;-76
2022/06/08 07:17:09;;;;;;;4.47;2.70;;;;;;;20.95;58.67;64170.47;5061570;28;20219;-77
2022/06/08 07:19:36;;;;;;;2.75;2.58;;;;;;;21.03;57.43;64175.75;5063460;28;20217;-76
2022/06/08 07:22:04;;;;;;;3.00;2.85;;;;;;;21.16;57.85;64189.31;5066587;28;20212;-77
2022/06/08 07:24:33;;;;;;;2.97;2.65;;;;;;;21.52;57.67;64229.50;5067078;28;20197;-76
2022/06/08 07:27:02;;;;;;;6.55;3.65;;;;;;;21.95;59.71;64271.34;5066286;28;20404;-76
2022/06/08 07:29:29;;;;;;;3.88;3.58;;;;;;;22.17;58.06;64289.16;5072954;28;20268;-76
2022/06/08 07:31:56;;;;;;;4.05;2.72;;;;;;;22.27;55.98;64304.78;5066517;28;20239;-75
2022/06/08 07:34:24;;;;;;;4.13;3.65;;;;;;;21.66;57.21;64241.56;5069824;28;20200;-77
2022/06/08 07:36:51;;;;;;;3.15;2.97;;;;;;;22.04;55.82;64281.28;5066292;28;20220;-75
2022/06/08 07:39:21;;;;;;;4.85;3.03;;;;;;;22.39;55.34;64317.34;5069993;28;20566;-76
2022/06/08 07:41:49;;;;;;;9.25;3.30;;;;;;;22.66;57.68;64342.97;5066951;28;20459;-75
2022/06/08 07:44:18;;;;;;;4.07;3.67;;;;;;;22.63;55.32;64339.84;5070110;28;20242;-75
2022/06/08 07:46:46;;;;;;;5.53;3.28;;;;;;;21.79;55.52;64253.09;5066762;28;20224;-76
2022/06/08 07:51:58;;;;;;;3.00;2.80;;;;;;;22.13;55.82;64290.69;5085058;28;20231;-77
2022/06/08 07:54:27;;;;;;;4.63;3.35;;;;;;;22.26;55.18;64306.88;5086769;28;20195;-76
2022/06/08 07:56:56;;;;;;;3.58;3.30;;;;;;;22.15;54.13;64289.66;5071655;28;20390;-76
2022/06/08 07:59:28;;;;;;;4.07;3.28;;;;;;;21.90;55.23;64264.06;5066577;28;20235;-77
2022/06/08 08:01:55;;;;;;;3.60;3.40;;;;;;;22.20;55.61;64297.47;5066135;28;20512;-76
2022/06/08 08:04:23;;;;;;;3.38;3.05;;;;;;;22.25;55.71;64305.28;5069076;28;20201;-76
2022/06/08 08:06:50;;;;;;;5.60;3.30;;;;;;;22.08;56.73;64280.28;5069402;28;20224;-77
2022/06/08 08:09:18;;;;;;;3.85;2.95;;;;;;;21.83;54.13;64256.22;5065897;28;20319;-77
2022/06/08 08:11:47;;;;;;;4.80;3.30;;;;;;;21.59;54.94;64237.34;5065249;28;20215;-76
2022/06/08 08:14:14;;;;;;;3.83;3.55;;;;;;;21.73;54.74;64252.00;5069143;28;20385;-76
2022/06/08 08:16:44;;;;;;;7.18;3.53;;;;;;;21.92;54.60;64266.16;5065756;28;20266;-76
2022/06/08 08:19:12;;;;;;;4.60;3.33;;;;;;;22.15;55.03;64290.19;5065555;28;20326;-76
2022/06/08 08:21:38;;;;;;;6.03;3.10;;;;;;;22.14;53.40;64293.81;5068286;28;20321;-76
2022/06/08 08:24:06;;;;;;;3.42;3.17;;;;;;;22.52;52.72;64325.75;5065000;28;20403;-73
2022/06/08 08:26:33;;;;;;;3.45;3.00;;;;;;;22.72;51.99;64349.78;5072678;28;20288;-73
2022/06/08 08:29:00;;;;;;;3.15;2.83;;;;;;;22.51;49.92;64327.81;5067015;28;20251;-75
2022/06/08 08:31:27;;;;;;;2.78;2.65;;;;;;;22.29;50.96;64306.88;5070858;28;20228;-73
2022/06/08 08:33:56;;;;;;;5.53;3.10;;;;;;;22.27;50.41;64302.72;5068467;28;20200;-73
2022/06/08 08:36:23;;;;;;;6.55;2.80;;;;;;;22.34;50.14;64312.66;5068311;28;20549;-74
2022/06/08 08:38:51;;;;;;;5.97;2.50;;;;;;;22.25;50.06;64302.69;5065257;28;20236;-73
2022/06/08 08:44:08;;;;;;;2.45;2.35;;;;;;;22.37;52.81;64312.66;5065359;28;20215;-74
2022/06/08 08:46:43;;;;;;;3.15;2.95;;;;;;;22.65;51.87;64342.47;5068346;28;20229;-75
2022/06/08 08:49:20;;;;;;;2.97;2.78;;;;;;;22.74;51.86;64353.97;5067467;28;20199;-72
2022/06/08 08:51:58;;;;;;;3.78;2.58;;;;;;;22.89;51.83;64375.38;5079722;28;20528;-73
2022/06/08 08:54:30;;;;;;;2.65;2.45;;;;;;;22.97;50.22;64372.28;5073636;28;20187;-73
2022/06/08 08:57:05;;;;;;;2.45;2.35;;;;;;;22.77;49.96;64359.69;5071368;28;20243;-73
2022/06/08 08:59:32;;;;;;;7.15;2.80;;;;;;;23.05;51.73;64388.97;5074151;28;20227;-75
2022/06/08 09:02:00;;;;;;;4.28;2.60;;;;;;;23.27;49.83;64411.97;5082268;28;20222;-71
2022/06/08 09:04:32;;;;;;;2.70;2.60;;;;;;;23.47;51.02;64432.91;5083477;28;20659;-74
2022/06/08 09:07:01;;;;;;;2.22;2.13;;;;;;;23.63;47.94;64444.47;5072142;28;20216;-73
2022/06/08 09:09:32;;;;;;;2.90;2.70;;;;;;;23.92;49.82;64479.47;5068222;28;20205;-72
2022/06/08 09:11:59;;;;;;;3.13;2.97;;;;;;;23.93;47.21;64480.53;5070414;28;20228;-73
2022/06/08 09:14:44;;;;;;;2.95;2.75;;;;;;;24.02;45.33;64484.78;5067073;28;20235;-74
2022/06/08 09:17:15;;;;;;;5.18;2.63;;;;;;;23.95;45.42;64475.34;5074328;28;20217;-72
2022/06/08 09:19:47;;;;;;;3.63;2.50;;;;;;;23.93;46.69;64478.47;5071968;28;20279;-73
2022/06/08 09:22:24;;;;;;;2.55;2.38;;;;;;;24.22;46.72;64505.72;5070468;28;20214;-73
2022/06/08 09:24:54;;;;;;;2.55;2.33;;;;;;;24.05;46.46;64490.00;5078083;28;20184;-73
2022/06/08 09:27:24;;;;;;;2.60;2.40;;;;;;;23.71;47.18;64455.44;5069080;28;20255;-72
2022/06/08 09:29:56;;;;;;;2.30;2.20;;;;;;;23.80;44.90;64461.72;5069937;28;20189;-74
2022/06/08 09:32:30;;;;;;;4.47;2.33;;;;;;;23.74;45.85;64460.66;5084657;28;20223;-73
2022/06/08 09:35:01;;;;;;;2.20;2.10;;;;;;;23.92;46.69;64474.81;5082840;28;20205;-72
2022/06/08 09:37:29;;;;;;;1.85;1.73;;;;;;;23.82;45.55;64466.94;5068144;28;20247;-73
2022/06/08 09:39:59;;;;;;;2.08;1.98;;;;;;;23.52;44.49;64435.03;5084040;28;20242;-73
2022/06/08 09:42:41;;;;;;;2.97;1.80;;;;;;;23.41;47.55;64426.13;5081820;28;20219;-73
2022/06/08 09:45:37;;;;;;;2.28;2.17;;;;;;;23.20;47.06;64402.06;5074713;28;20204;-74
2022/06/08 09:51:29;;;;;;;6.03;2.05;;;;;;;23.31;47.28;64418.78;5064860;28;20577;-73
2022/06/08 09:54:11;;;;;;;2.00;1.90;;;;;;;23.39;46.28;64416.22;5073217;28;20264;-73
2022/06/08 09:57:07;;;;;;;2.15;2.05;;;;;;;23.58;45.43;64439.25;5078993;28;20219;-73
2022/06/08 09:59:48;;;;;;;3.22;2.05;;;;;;;23.68;47.53;64449.16;5063254;28;20231;-73
2022/06/08 10:02:24;;;;;;;5.57;2.17;;;;;;;23.95;46.72;64482.63;5064046;28;20262;-73
2022/06/08 10:05:13;;;;;;;1.63;1.60;;;;;;;24.28;49.18;64519.78;5079945;28;20204;-72
2022/06/08 10:07:49;;;;;;;4.20;2.10;;;;;;;24.61;50.31;64546.53;5063313;28;20282;-74
2022/06/08 10:10:33;;;;;;;1.85;1.75;;;;;;;24.86;48.85;64574.81;5070348;28;20184;-73
2022/06/08 10:13:01;;;;;;;1.48;1.45;;;;;;;24.96;48.90;64582.69;5065150;28;20473;-74
2022/06/08 10:15:34;;;;;;;2.13;1.92;;;;;;;24.96;44.43;64583.22;5072386;28;20513;-72
2022/06/08 10:18:11;;;;;;;3.33;1.90;;;;;;;25.04;43.09;64598.88;5059588;28;20196;-74
2022/06/08 10:20:42;;;;;;;1.65;1.55;;;;;;;24.94;42.45;64586.31;5074093;28;20195;-74
2022/06/08 10:23:25;;;;;;;1.88;1.75;;;;;;;24.94;41.01;64580.59;5078659;28;20203;-76
2022/06/08 10:25:58;;;;;;;2.58;2.35;;;;;;;24.71;42.97;64559.13;5076932;28;20439;-74
2022/06/08 10:28:33;;;;;;;1.80;1.70;;;;;;;24.61;44.73;64549.13;5068588;28;20271;-74
2022/06/08 10:31:06;;;;;;;1.90;1.80;;;;;;;24.87;47.45;64575.84;5083401;28;20542;-75
2022/06/08 10:33:40;;;;;;;3.33;1.73;;;;;;;24.92;45.31;64578.50;5082140;28;20238;-75
2022/06/08 10:36:10;;;;;;;3.40;2.03;;;;;;;24.93;44.48;64587.38;5072700;28;20439;-76
2022/06/08 10:38:43;;;;;;;4.00;1.60;;;;;;;24.59;46.96;64541.81;5081757;28;20239;-75
2022/06/08 10:44:32;;;;;;;1.92;1.80;;;;;;;24.42;46.29;64529.25;5066796;28;20231;-76
2022/06/08 10:47:17;;;;;;;2.17;2.08;;;;;;;24.56;43.93;64543.38;5071809;28;20229;-76
2022/06/08 10:49:50;;;;;;;3.17;2.60;;;;;;;24.88;43.35;64576.91;5061750;28;20199;-76
2022/06/08 10:52:29;;;;;;;2.65;2.45;;;;;;;25.08;44.93;64601.00;5065288;28;20402;-76
2022/06/08 10:55:33;;;;;;;1.75;1.70;;;;;;;25.43;44.15;64634.56;5061993;28;20466;-75
2022/06/08 10:58:06;;;;;;;2.20;2.00;;;;;;;25.56;44.87;64650.78;5062583;28;20231;-75
2022/06/08 11:01:01;;;;;;;1.77;1.77;;;;;;;25.48;43.79;64641.88;5062597;28;20236;-75
2022/06/08 11:03:57;;;;;;;2.03;1.92;;;;;;;25.46;43.63;64637.16;5063945;28;20263;-76
2022/06/08 11:07:04;;;;;;;2.17;2.08;;;;;;;25.64;43.11;64656.03;5081668;28;20289;-76
2022/06/08 11:10:00;;;;;;;6.32;2.35;;;;;;;25.80;41.60;64675.41;5063885;28;20219;-76
2022/06/08 11:12:52;;;;;;;2.40;2.30;;;;;;;25.83;43.79;64675.94;5063963;28;20221;-75
2022/06/08 11:15:36;;;;;;;2.67;2.08;;;;;;;25.73;44.45;64665.97;5081943;28;20200;-75
2022/06/08 11:18:14;;;;;;;3.70;3.28;;;;;;;26.00;44.36;64691.69;5067842;28;20212;-75
2022/06/08 11:20:47;;;;;;;3.15;2.95;;;;;;;25.86;41.61;64679.63;5067386;28;20266;-75
2022/06/08 11:23:20;;;;;;;3.53;2.53;;;;;;;25.34;44.25;64625.09;5076205;28;20200;-75
2022/06/08 11:25:50;;;;;;;2.55;2.42;;;;;;;25.44;42.71;64635.09;5070841;28;20244;-75
2022/06/08 11:28:39;;;;;;;2.45;2.20;;;;;;;25.82;42.74;64672.28;5069689;28;20196;-75
2022/06/08 11:31:11;;;;;;;2.45;2.35;;;;;;;25.86;44.39;64679.09;5072116;28;20227;-75
2022/06/08 11:34:10;;;;;;;2.45;2.25;;;;;;;26.10;42.65;64704.78;5064876;28;20202;-75
2022/06/08 11:36:50;;;;;;;2.50;2.40;;;;;;;26.14;42.03;64708.47;5064023;28;20559;-76
2022/06/08 11:39:26;;;;;;;2.33;2.13;;;;;;;26.13;41.98;64705.31;5065818;28;20216;-75
2022/06/08 11:42:01;;;;;;;3.08;2.50;;;;;;;26.27;42.88;64721.53;5070717;28;20212;-76
2022/06/08 11:44:35;;;;;;;3.35;2.40;;;;;;;25.71;41.17;64658.16;5079133;28;20200;-76
2022/06/08 11:47:06;;;;;;;5.53;2.35;;;;;;;25.83;41.43;64678.56;5065599;28;20229;-75
2022/06/08 11:49:39;;;;;;;2.83;2.63;;;;;;;25.70;43.59;64657.63;5072371;28;20222;-75
2022/06/08 11:52:26;;;;;;;2.97;2.78;;;;;;;26.09;40.92;64703.22;5065974;28;20432;-75
2022/06/08 11:55:21;;;;;;;2.80;2.47;;;;;;;25.98;39.93;64691.66;5064958;28;20193;-75
2022/06/08 11:57:56;;;;;;;3.58;3.00;;;;;;;26.02;41.49;64698.47;5065654;28;20231;-76
2022/06/08 12:00:29;;;;;;;3.97;2.75;;;;;;;26.27;40.29;64719.47;5072719;28;20581;-75
2022/06/08 12:03:00;;;;;;;2.72;2.63;;;;;;;26.42;40.03;64737.28;5068323;28;20263;-75
2022/06/08 12:05:31;;;;;;;2.38;2.28;;;;;;;26.88;38.97;64788.16;5063813;28;20524;-76